Amboy, MN

8:13 AM CDT on September 02, 2015 (GMT -0500)
Golly Farms | | Change Station
CLOSE
Current Station
Personal Weather Station
Location: Winnebago, MN
Elevation: 1079 ft
Nearby Weather Stations

Elev 1079 ft 43.80 °N, 94.20 °W | Updated 7 minutes ago

Mostly Cloudy
Mostly Cloudy
71.6 °F
Feels Like 71.6 °F
N
2.0
Wind Variable Wind from SSE
Gusts 9.0 mph

Today
High -- | Low -- °F
--% Chance of Precip.
Yesterday
High -- | Low -- °F
Precip. -- in
6:40 AM 7:50 PM
Waning Gibbous, 80% visible
Pressure 29.91 in
Visibility 10.0 miles
Clouds Clear
Dew Point 68 °F
Humidity 88%
Rainfall 0.28 in
Snow Depth Not available.
UV 1 out of 12
Pollen 10.40 out of 12
Air Quality Not available.
Flu Activity Not available.
METAR KJYG 021254Z AUTO 16008G14KT 10SM CLR 22/21 A2991 RMK AO2
Pressure 29.91 in
Visibility 10.0 miles
Clouds Clear
Dew Point 68 °F
Humidity 88%
Rainfall 0.28 in
Snow Depth Not available.
UV 1 out of 12
Pollen 10.40 out of 12
Air Quality Not available.
Flu Activity Not available.
METAR KJYG 021254Z AUTO 16008G14KT 10SM CLR 22/21 A2991 RMK AO2

10-Day Weather Forecast

×

Almanac

Astronomy

Sep. 02, 2015 Rise Set
Actual Time
Civil Twilight
Nautical Twilight
Astronomical Twilight
Moon
Length of Visible Light
Length of Day
Tomorrow will be .
, % of the Moon is Illuminated

Today's Extremes

State Highs State Lows

Community

WunderPhotos

Upload Photos

1,851,750 photos uploaded!

WunderBlogs® & News

Nearby

Air Quality

  Air Quality AQ Index Pollutant
Not available.

Snow Depth

Station Depth Elevation

Earthquake Activity

City Distance Mag. Time & Date
Minimum magnitude displayed is 2.5.

Coastal Water Temperatures

Place Temperature

Stations

Nearby Weather Stations

Station Location Temp. Windchill Dew Point Humidity Wind Precip. Elev Updated Type